Pine Summit, Pennsylvania
Current Conditions -  °F | °C
As of 7:54 AM on Friday 28 Nov 2014 (Local Time) from KIPT Reporting Station
Overcast Overcast  
Wind Chill: 22°   Ceiling: 6500
Heat Index: 28°   Visibility: 10mi
Dew Point: 17°   Wind: 6mph
Humidity: 63%   Direction: 310°NW
Pressure: 30.23"   Gusts: NA
Location:  41.1401°N, 76.5245°W
Report Text: KIPT 281254Z 31005KT 10SM OVC065 M02/M08 A3023 RMK AO2 SLP241 T10221083
Loading
Personal Weather Stations






























Interactive Weather Map New forecast layout! Learn more

10-Day Weather Forecast

Advertisements
Track Severe Weather on mobile